createdAt,value
2019-05-03T00:00:27.794Z,70
2019-05-03T00:05:43.881Z,71
2019-05-03T00:11:01.870Z,71
2019-05-03T00:31:56.923Z,70
2019-05-03T00:42:22.905Z,71
2019-05-03T00:58:03.003Z,73
2019-05-03T01:03:18.962Z,74
2019-05-03T01:08:34.119Z,73
2019-05-03T01:13:51.963Z,74
2019-05-03T01:19:04.966Z,73
2019-05-03T01:29:33.601Z,73
2019-05-03T01:40:03.819Z,74
2019-05-03T01:45:19.150Z,74
2019-05-03T01:50:37.498Z,76
2019-05-03T01:55:53.791Z,76
2019-05-03T02:01:12.538Z,76
2019-05-03T02:06:25.704Z,76
2019-05-03T02:16:53.688Z,76
2019-05-03T02:27:18.854Z,76
2019-05-03T02:32:38.197Z,77
2019-05-03T02:37:54.689Z,77
2019-05-03T02:43:17.885Z,76
2019-05-03T02:48:31.141Z,76
2019-05-03T02:58:57.643Z,78
2019-05-03T03:04:11.834Z,77
2019-05-03T03:09:27.481Z,77
2019-05-03T03:14:42.530Z,78
2019-05-03T03:20:05.959Z,78
2019-05-03T03:25:19.486Z,78
2019-05-03T03:35:50.342Z,78
2019-05-03T03:41:06.323Z,78
2019-05-03T03:46:19.411Z,78
2019-05-03T03:51:36.445Z,78
2019-05-03T03:57:08.953Z,78
2019-05-03T04:02:21.542Z,78
2019-05-03T04:07:37.612Z,78
2019-05-03T04:12:57.565Z,77
2019-05-03T04:18:17.803Z,77
2019-05-03T04:23:37.275Z,77
2019-05-03T04:28:49.708Z,77
2019-05-03T04:34:06.626Z,77
2019-05-03T04:39:21.763Z,77
2019-05-03T04:44:37.570Z,77
2019-05-03T04:49:59.077Z,77
2019-05-03T04:55:17.471Z,77
2019-05-03T05:00:40.458Z,76
2019-05-03T05:06:00.662Z,77
2019-05-03T05:11:17.248Z,76
2019-05-03T05:16:40.547Z,72
2019-05-03T05:21:56.591Z,67
2019-05-03T05:27:18.583Z,64
2019-05-03T05:32:36.431Z,61
2019-05-03T05:37:52.240Z,59
2019-05-03T07:33:12.177Z,53
2019-05-03T07:48:55.208Z,53
2019-05-03T07:54:10.179Z,52
2019-05-03T07:59:26.494Z,53
2019-05-03T08:10:06.891Z,51
2019-05-03T08:25:50.589Z,51
2019-05-03T08:31:06.835Z,51
2019-05-03T08:41:39.455Z,50
2019-05-03T08:46:57.727Z,49
2019-05-03T10:19:59.186Z,44
2019-05-03T10:23:06.749Z,43
2019-05-03T10:26:37.185Z,43
2019-05-03T10:27:59.487Z,44
2019-05-03T10:33:00.646Z,44
2019-05-03T10:34:00.280Z,45
2019-05-03T10:36:43.393Z,0
2019-05-03T10:40:12.554Z,43
2019-05-03T10:42:25.415Z,44
2019-05-03T10:45:35.844Z,46
2019-05-03T11:08:38.021Z,39
2019-05-03T11:26:30.559Z,31
2019-05-03T11:36:46.714Z,32
2019-05-03T11:41:55.906Z,33
2019-05-03T11:47:06.914Z,34
2019-05-03T11:52:19.342Z,34
2019-05-03T11:57:27.137Z,32
2019-05-03T12:02:35.707Z,33
2019-05-03T12:07:45.889Z,33
2019-05-03T12:12:55.882Z,33
2019-05-03T12:18:11.061Z,33
2019-05-03T12:23:25.710Z,32
2019-05-03T12:28:32.020Z,32
2019-05-03T12:33:40.735Z,31
2019-05-03T12:38:49.724Z,30
2019-05-03T12:44:05.110Z,31
2019-05-03T12:49:20.189Z,30
2019-05-03T12:54:36.266Z,29
2019-05-03T12:59:45.558Z,28
2019-05-03T14:00:37.950Z,40
2019-05-03T14:02:40.761Z,36
2019-05-03T14:04:56.084Z,33
2019-05-03T14:08:25.979Z,32
2019-05-03T14:09:35.450Z,33
2019-05-03T14:19:11.229Z,39
2019-05-03T14:24:24.233Z,31
2019-05-03T14:29:36.341Z,30
2019-05-03T14:55:22.445Z,30
2019-05-03T15:00:37.528Z,28
2019-05-03T15:05:46.239Z,28
2019-05-03T15:10:55.366Z,29
2019-05-03T15:16:05.698Z,29
2019-05-03T15:21:15.112Z,32
2019-05-03T15:26:25.355Z,31
2019-05-03T15:31:35.841Z,30
2019-05-03T15:41:54.831Z,32
2019-05-03T15:52:08.908Z,32
2019-05-03T15:57:21.579Z,33
2019-05-03T16:02:29.001Z,33
2019-05-03T16:07:41.349Z,33
2019-05-03T16:12:48.243Z,33
2019-05-03T16:18:00.230Z,33
2019-05-03T16:23:07.122Z,33
2019-05-03T16:28:15.710Z,34
2019-05-03T16:33:28.722Z,34
2019-05-03T16:38:40.131Z,34
2019-05-03T16:43:48.276Z,35
2019-05-03T16:49:07.001Z,36
2019-05-03T16:54:17.280Z,36
2019-05-03T16:59:25.268Z,36
2019-05-03T17:04:34.997Z,36
2019-05-03T17:09:44.567Z,37
2019-05-03T17:14:57.992Z,37
2019-05-03T17:20:07.120Z,38
2019-05-03T17:25:15.482Z,38
2019-05-03T17:30:37.634Z,39
2019-05-03T17:35:42.310Z,40
2019-05-03T17:40:50.366Z,40
2019-05-03T17:45:59.703Z,41
2019-05-03T17:51:09.630Z,42
2019-05-03T17:56:22.171Z,42
2019-05-03T18:01:30.159Z,43
2019-05-03T18:06:39.770Z,43
2019-05-03T18:11:52.814Z,43
2019-05-03T18:17:02.715Z,44
2019-05-03T18:22:15.775Z,44
2019-05-03T18:27:25.644Z,44
2019-05-03T18:32:32.162Z,44
2019-05-03T18:37:41.942Z,45
2019-05-03T18:42:48.037Z,45
2019-05-03T18:48:02.400Z,46
2019-05-03T18:53:10.742Z,46
2019-05-03T18:58:19.889Z,46
2019-05-03T19:03:27.040Z,47
2019-05-03T19:08:38.259Z,47
2019-05-03T19:13:48.683Z,47
2019-05-03T19:19:00.538Z,48
2019-05-03T19:24:09.331Z,48
2019-05-03T19:29:21.204Z,48
2019-05-03T19:34:28.526Z,49
2019-05-03T19:39:42.007Z,49
2019-05-03T19:44:52.450Z,49
2019-05-03T19:50:01.460Z,50
2019-05-03T19:55:09.116Z,50
2019-05-03T20:00:17.131Z,50
2019-05-03T20:05:25.704Z,51
2019-05-03T20:10:38.044Z,50
2019-05-03T20:15:45.543Z,50
2019-05-03T20:21:00.492Z,50
2019-05-03T20:26:15.612Z,50
2019-05-03T20:31:22.104Z,50
2019-05-03T20:36:28.992Z,53
2019-05-03T20:41:36.108Z,54
2019-05-03T20:46:44.224Z,53
2019-05-03T20:51:52.062Z,53
2019-05-03T20:56:59.056Z,53
2019-05-03T21:02:06.556Z,53
2019-05-03T21:07:15.440Z,53
2019-05-03T21:12:28.421Z,53
2019-05-03T21:17:35.755Z,53
2019-05-03T21:22:44.785Z,53
2019-05-03T21:27:56.001Z,53
2019-05-03T21:33:08.560Z,54
2019-05-03T21:38:15.726Z,54
2019-05-03T21:43:21.742Z,54
2019-05-03T21:48:28.404Z,55
2019-05-03T21:53:38.776Z,56
2019-05-03T21:58:45.615Z,56
2019-05-03T22:03:54.029Z,56
2019-05-03T22:09:00.726Z,56
2019-05-03T22:14:11.875Z,57
2019-05-03T22:19:20.081Z,57
2019-05-03T22:24:27.398Z,57
2019-05-03T22:29:36.400Z,57
2019-05-03T22:34:42.670Z,57
2019-05-03T22:39:50.444Z,57
2019-05-03T22:44:56.831Z,57
2019-05-03T22:50:05.913Z,58
2019-05-03T22:55:15.692Z,58
2019-05-03T23:00:21.828Z,59
2019-05-03T23:05:28.390Z,60
2019-05-03T23:10:41.165Z,60
2019-05-03T23:15:51.832Z,60
2019-05-03T23:21:05.095Z,60
2019-05-03T23:26:11.589Z,60
2019-05-03T23:31:20.604Z,60
2019-05-03T23:36:36.579Z,64
2019-05-03T23:41:45.242Z,64
2019-05-03T23:46:54.240Z,63
2019-05-03T23:52:01.010Z,62
2019-05-03T23:57:08.568Z,62
